createdAt,value
2022-12-07T00:00:01.050Z,365.10
2022-12-07T00:02:31.554Z,573.87
2022-12-07T00:05:01.533Z,698.27
2022-12-07T00:07:31.902Z,782.07
2022-12-07T00:10:04.521Z,904.80
2022-12-07T00:12:35.150Z,634.33
2022-12-07T00:15:05.198Z,587.97
2022-12-07T00:17:35.924Z,567.37
2022-12-07T00:20:06.090Z,672.37
2022-12-07T00:22:36.863Z,1001.87
2022-12-07T00:25:10.005Z,956.43
2022-12-07T00:27:40.050Z,722.07
2022-12-07T00:30:11.514Z,659.97
2022-12-07T00:32:42.146Z,436.37
2022-12-07T00:35:12.584Z,659.17
2022-12-07T00:37:42.935Z,416.80
2022-12-07T00:40:16.394Z,349.63
2022-12-07T00:42:46.648Z,440.17
2022-12-07T00:45:16.727Z,353.00
2022-12-07T00:47:47.004Z,276.50
2022-12-07T00:50:16.950Z,389.70
2022-12-07T00:52:46.952Z,259.10
2022-12-07T00:55:19.589Z,520.97
2022-12-07T00:57:50.192Z,134.30
2022-12-07T01:00:20.513Z,188.77
2022-12-07T01:02:50.687Z,474.40
2022-12-07T01:05:20.798Z,167.07
2022-12-07T01:07:51.403Z,360.30
2022-12-07T01:10:24.039Z,319.73
2022-12-07T01:12:54.940Z,270.53
2022-12-07T01:15:24.930Z,350.30
2022-12-07T01:17:56.070Z,305.20
2022-12-07T01:20:26.581Z,212.67
2022-12-07T01:22:57.256Z,427.83
2022-12-07T01:25:29.836Z,628.93
2022-12-07T01:28:00.542Z,580.07
2022-12-07T01:30:30.662Z,508.13
2022-12-07T01:33:01.735Z,363.83
2022-12-07T01:35:31.761Z,213.70
2022-12-07T01:38:03.013Z,610.13
2022-12-07T01:40:35.570Z,598.07
2022-12-07T01:43:05.882Z,680.80
2022-12-07T01:45:42.888Z,736.43
2022-12-07T01:48:16.616Z,435.07
2022-12-07T01:50:48.970Z,690.63
2022-12-07T01:53:22.374Z,687.20
2022-12-07T01:55:57.131Z,471.47
2022-12-07T01:58:28.459Z,515.60
2022-12-07T02:00:58.582Z,400.77
2022-12-07T02:03:34.272Z,301.03
2022-12-07T02:06:04.580Z,346.50
2022-12-07T02:08:35.724Z,198.43
2022-12-07T02:11:10.547Z,270.77
2022-12-07T02:13:44.244Z,263.00
2022-12-07T02:16:24.069Z,273.00
2022-12-07T02:19:14.048Z,269.50
2022-12-07T02:21:54.377Z,364.47
2022-12-07T02:24:49.635Z,384.63
2022-12-07T02:27:42.778Z,427.47
2022-12-07T02:30:17.271Z,371.03
2022-12-07T02:32:55.108Z,368.97
2022-12-07T02:35:32.372Z,325.20
2022-12-07T02:38:08.093Z,411.53
2022-12-07T02:40:42.279Z,203.07
2022-12-07T02:43:19.020Z,155.40
2022-12-07T02:45:53.889Z,613.77
2022-12-07T02:48:25.985Z,597.77
2022-12-07T02:50:57.493Z,672.83
2022-12-07T02:53:36.527Z,706.93
2022-12-07T02:56:16.594Z,229.20
2022-12-07T02:58:58.984Z,732.23
2022-12-07T03:01:42.483Z,538.50
2022-12-07T03:04:23.358Z,495.70
2022-12-07T03:06:57.242Z,331.23
2022-12-07T03:09:36.769Z,302.27
2022-12-07T03:12:15.205Z,452.63
2022-12-07T03:14:50.709Z,421.43
2022-12-07T03:17:27.635Z,621.47
2022-12-07T03:20:02.996Z,710.00
2022-12-07T03:22:38.388Z,766.00
2022-12-07T03:25:12.892Z,344.30
2022-12-07T03:27:49.417Z,312.00
2022-12-07T03:30:23.429Z,620.47
2022-12-07T03:33:02.479Z,458.20
2022-12-07T03:35:38.144Z,349.43
2022-12-07T03:38:18.768Z,746.73
2022-12-07T03:40:54.346Z,607.13
2022-12-07T03:43:25.881Z,225.37
2022-12-07T03:46:05.961Z,633.47
2022-12-07T03:48:43.612Z,821.77
2022-12-07T03:51:22.980Z,549.93
2022-12-07T03:53:58.369Z,411.67
2022-12-07T03:56:29.818Z,270.40
2022-12-07T03:59:00.480Z,308.07
2022-12-07T04:01:31.339Z,939.13
2022-12-07T04:04:05.068Z,637.63
2022-12-07T04:06:34.998Z,748.47
2022-12-07T04:09:05.595Z,345.13
2022-12-07T04:11:35.589Z,237.50
2022-12-07T04:14:18.393Z,503.33
2022-12-07T04:16:48.476Z,205.07
2022-12-07T04:19:23.554Z,450.43
2022-12-07T04:21:53.809Z,465.80
2022-12-07T04:24:24.389Z,276.57
2022-12-07T04:26:54.561Z,298.37
2022-12-07T04:29:25.497Z,375.90
2022-12-07T04:31:56.162Z,420.60
2022-12-07T04:34:29.183Z,193.23
2022-12-07T04:36:59.208Z,171.83
2022-12-07T04:39:33.064Z,193.17
2022-12-07T04:42:04.219Z,400.13
2022-12-07T04:44:35.648Z,507.27
2022-12-07T04:47:05.815Z,210.77
2022-12-07T04:49:38.885Z,164.80
2022-12-07T04:52:09.271Z,279.87
2022-12-07T04:54:39.901Z,77.40
2022-12-07T04:57:09.874Z,489.73
2022-12-07T04:59:45.257Z,496.93
2022-12-07T05:02:16.005Z,278.47
2022-12-07T05:04:49.750Z,304.17
2022-12-07T05:07:19.755Z,105.70
2022-12-07T05:09:50.412Z,441.23
2022-12-07T05:12:20.441Z,76.40
2022-12-07T05:14:50.761Z,185.40
2022-12-07T05:17:20.779Z,115.00
2022-12-07T05:19:54.043Z,174.80
2022-12-07T05:22:24.007Z,437.70
2022-12-07T05:24:54.354Z,296.23
2022-12-07T05:27:24.720Z,411.10
2022-12-07T05:29:55.634Z,308.73
2022-12-07T05:32:25.618Z,477.37
2022-12-07T05:34:58.530Z,215.80
2022-12-07T05:37:28.506Z,337.57
2022-12-07T05:39:58.722Z,531.67
2022-12-07T05:42:31.586Z,806.43
2022-12-07T05:45:02.149Z,505.83
2022-12-07T05:47:32.117Z,221.60
2022-12-07T05:50:06.140Z,376.83
2022-12-07T05:52:36.190Z,443.70
2022-12-07T05:55:08.300Z,504.40
2022-12-07T05:57:38.248Z,737.73
2022-12-07T06:00:07.502Z,537.70
2022-12-07T06:02:42.328Z,478.97
2022-12-07T06:05:15.550Z,217.37
2022-12-07T06:07:45.625Z,437.07
2022-12-07T06:10:16.171Z,575.50
2022-12-07T06:12:44.246Z,816.67
2022-12-07T06:15:15.367Z,321.50
2022-12-07T06:17:45.386Z,1019.97
2022-12-07T06:20:18.507Z,952.40
2022-12-07T06:22:48.520Z,354.83
2022-12-07T06:25:19.584Z,1368.40
2022-12-07T06:27:49.909Z,1241.50
2022-12-07T06:30:20.287Z,839.83
2022-12-07T06:32:50.603Z,1078.67
2022-12-07T06:35:23.295Z,772.70
2022-12-07T06:37:53.546Z,848.57
2022-12-07T06:40:23.510Z,735.40
2022-12-07T06:42:53.910Z,626.50
2022-12-07T06:45:23.865Z,537.47
2022-12-07T06:47:53.962Z,486.60
2022-12-07T06:50:27.105Z,685.50
2022-12-07T06:52:57.144Z,712.73
2022-12-07T06:55:27.144Z,725.97
2022-12-07T06:57:57.133Z,798.53
2022-12-07T07:00:27.191Z,838.40
2022-12-07T07:02:57.596Z,918.77
2022-12-07T07:05:30.172Z,319.70
2022-12-07T07:10:50.370Z,763.27
2022-12-07T07:13:23.233Z,470.17
2022-12-07T07:15:53.144Z,671.00
2022-12-07T07:18:23.856Z,457.33
2022-12-07T07:20:57.962Z,590.43
2022-12-07T07:23:28.387Z,745.33
2022-12-07T07:25:58.708Z,578.63
2022-12-07T07:28:29.114Z,602.83
2022-12-07T07:30:59.111Z,553.73
2022-12-07T07:33:29.819Z,130.57
2022-12-07T07:36:02.409Z,391.40
2022-12-07T07:38:33.291Z,767.70
2022-12-07T07:41:03.310Z,679.97
2022-12-07T07:43:33.566Z,701.40
2022-12-07T07:46:03.768Z,509.50
2022-12-07T07:48:34.271Z,478.63
2022-12-07T07:51:09.472Z,443.17
2022-12-07T07:53:40.191Z,310.80
2022-12-07T07:56:10.272Z,266.43
2022-12-07T07:58:40.546Z,612.40
2022-12-07T08:01:10.916Z,476.60
2022-12-07T08:03:41.016Z,300.77
2022-12-07T08:06:13.573Z,490.53
2022-12-07T08:08:44.122Z,405.30
2022-12-07T08:11:14.389Z,21.43
2022-12-07T08:13:45.062Z,16.03
2022-12-07T08:16:16.298Z,8.13
2022-12-07T08:18:47.434Z,2.43
2022-12-07T08:21:20.150Z,4.30
2022-12-07T08:23:50.653Z,5.30
2022-12-07T08:26:20.782Z,2.80
2022-12-07T08:28:51.422Z,2.43
2022-12-07T08:31:22.207Z,3.20
2022-12-07T08:33:53.148Z,17.87
2022-12-07T08:36:26.547Z,90.33
2022-12-07T08:39:29.931Z,177.80
2022-12-07T08:41:47.524Z,82.70
2022-12-07T08:44:17.706Z,142.43
2022-12-07T08:46:51.639Z,67.37
2022-12-07T08:49:25.341Z,74.47
2022-12-07T08:51:59.332Z,8.13
2022-12-07T08:54:30.873Z,5.20
2022-12-07T08:57:00.926Z,11.97
2022-12-07T08:59:31.877Z,6.57
2022-12-07T09:02:01.948Z,4.27
2022-12-07T09:04:32.594Z,4.77
2022-12-07T09:07:05.657Z,45.23
2022-12-07T09:09:35.732Z,403.57
2022-12-07T09:12:06.758Z,94.57
2022-12-07T09:14:36.901Z,89.37
2022-12-07T09:17:11.196Z,203.83
2022-12-07T09:19:43.423Z,13.03
2022-12-07T09:22:16.034Z,65.33
2022-12-07T09:24:46.890Z,311.87
2022-12-07T09:27:18.707Z,290.80
2022-12-07T09:29:48.984Z,181.87
2022-12-07T09:32:18.996Z,292.03
2022-12-07T09:34:49.517Z,381.10
2022-12-07T09:37:22.737Z,151.80
2022-12-07T09:39:53.387Z,76.90
2022-12-07T09:42:32.792Z,204.43
2022-12-07T09:45:03.244Z,158.53
2022-12-07T09:47:35.228Z,146.97
2022-12-07T09:50:09.745Z,5.33
2022-12-07T09:52:42.578Z,139.37
2022-12-07T09:55:16.566Z,86.20
2022-12-07T09:57:47.263Z,171.70
2022-12-07T10:00:20.084Z,173.67
2022-12-07T10:02:53.591Z,168.57
2022-12-07T10:05:28.022Z,529.63
2022-12-07T10:08:00.771Z,174.40
2022-12-07T10:10:38.592Z,148.73
2022-12-07T10:13:11.134Z,96.97
2022-12-07T10:15:52.256Z,24.13
2022-12-07T10:18:34.102Z,3.13
2022-12-07T10:21:13.624Z,3.10
2022-12-07T10:24:03.188Z,3.50
2022-12-07T10:26:38.813Z,3.77
2022-12-07T10:29:20.516Z,4.57
2022-12-07T10:31:55.935Z,5.63
2022-12-07T10:34:28.141Z,5.00
2022-12-07T10:37:10.479Z,16.57
2022-12-07T10:39:48.875Z,15.70
2022-12-07T10:42:23.710Z,10.80
2022-12-07T10:45:11.934Z,18.83
2022-12-07T10:47:48.545Z,8.70
2022-12-07T10:50:47.042Z,68.13
2022-12-07T10:53:55.512Z,60.73
2022-12-07T10:56:56.162Z,108.73
2022-12-07T10:59:43.619Z,2.37
2022-12-07T11:02:30.193Z,2.50
2022-12-07T11:05:10.391Z,2.80
2022-12-07T11:07:55.118Z,2.63
2022-12-07T11:10:32.778Z,1.87
2022-12-07T11:13:23.755Z,1.63
2022-12-07T11:16:25.871Z,2.00
2022-12-07T11:19:11.334Z,1.70
2022-12-07T11:21:49.386Z,5.40
2022-12-07T11:24:22.142Z,62.03
2022-12-07T11:27:07.060Z,29.77
2022-12-07T11:29:53.037Z,2.83
2022-12-07T11:32:36.201Z,1.70
2022-12-07T11:35:12.785Z,1.83
2022-12-07T11:37:44.017Z,1.90
2022-12-07T11:40:23.266Z,2.50
2022-12-07T11:42:57.389Z,1.53
2022-12-07T11:45:32.711Z,1.50
2022-12-07T11:48:05.391Z,1.60
2022-12-07T11:50:40.031Z,2.67
2022-12-07T11:53:17.903Z,26.57
2022-12-07T11:55:54.674Z,32.80
2022-12-07T11:58:46.684Z,6.30
2022-12-07T12:01:39.365Z,3.20
2022-12-07T12:04:23.141Z,5.13
2022-12-07T12:06:54.076Z,32.47
2022-12-07T12:09:46.685Z,7.33
2022-12-07T12:15:51.702Z,5.50
2022-12-07T12:18:39.654Z,5.23
2022-12-07T12:21:15.895Z,4.67
2022-12-07T12:23:53.674Z,6.10
2022-12-07T12:26:27.189Z,5.67
2022-12-07T12:29:00.312Z,4.57
2022-12-07T12:31:40.188Z,6.80
2022-12-07T12:34:48.315Z,8.63
2022-12-07T12:37:45.857Z,7.30
2022-12-07T12:40:50.860Z,4.33
2022-12-07T12:43:50.539Z,5.53
2022-12-07T12:46:50.372Z,5.13
2022-12-07T12:49:47.096Z,4.43
2022-12-07T12:52:53.593Z,3.90
2022-12-07T12:55:33.706Z,2.13
2022-12-07T12:58:35.543Z,2.63
2022-12-07T13:01:35.872Z,4.73
2022-12-07T13:04:08.018Z,5.63
2022-12-07T13:06:42.194Z,5.13
2022-12-07T13:09:27.060Z,3.40
2022-12-07T13:12:04.956Z,8.43
2022-12-07T13:14:47.891Z,3.80
2022-12-07T13:17:53.208Z,4.57
2022-12-07T13:20:47.879Z,6.70
2022-12-07T13:23:22.795Z,7.97
2022-12-07T13:25:59.671Z,3.97
2022-12-07T13:28:36.149Z,7.77
2022-12-07T13:31:35.457Z,3.97
2022-12-07T13:34:06.925Z,4.07
2022-12-07T13:36:43.047Z,7.73
2022-12-07T13:39:23.833Z,4.00
2022-12-07T13:41:56.311Z,5.10
2022-12-07T13:44:27.687Z,4.80
2022-12-07T13:47:04.413Z,6.10
2022-12-07T13:49:37.144Z,10.30
2022-12-07T13:52:19.827Z,8.30
2022-12-07T13:54:51.610Z,6.37
2022-12-07T13:57:22.665Z,3.17
2022-12-07T13:59:53.735Z,5.47
2022-12-07T14:02:33.807Z,6.33
2022-12-07T14:05:14.510Z,5.70
2022-12-07T14:07:59.133Z,10.00
2022-12-07T14:10:32.006Z,4.60
2022-12-07T14:13:03.886Z,6.00
2022-12-07T14:15:37.342Z,6.10
2022-12-07T14:18:07.918Z,7.13
2022-12-07T14:20:40.602Z,6.77
2022-12-07T14:23:28.063Z,6.50
2022-12-07T14:26:08.533Z,5.13
2022-12-07T14:28:40.818Z,8.20
2022-12-07T14:31:23.666Z,6.37
2022-12-07T14:33:55.393Z,4.90
2022-12-07T14:36:25.854Z,6.20
2022-12-07T14:39:00.583Z,5.77
2022-12-07T14:41:44.189Z,6.63
2022-12-07T14:44:25.743Z,6.30
2022-12-07T14:49:49.265Z,7.33
2022-12-07T14:55:27.299Z,4.97
2022-12-07T14:57:58.047Z,7.70
2022-12-07T15:00:30.445Z,5.90
2022-12-07T15:03:00.968Z,6.93
2022-12-07T15:05:31.009Z,6.20
2022-12-07T15:08:01.941Z,4.63
2022-12-07T15:10:39.723Z,8.57
2022-12-07T15:13:23.036Z,5.47
2022-12-07T15:15:54.936Z,10.27
2022-12-07T15:18:26.372Z,6.33
2022-12-07T15:20:56.360Z,9.90
2022-12-07T15:23:26.367Z,5.90
2022-12-07T15:25:58.870Z,10.53
2022-12-07T15:28:28.860Z,7.20
2022-12-07T15:31:07.141Z,5.17
2022-12-07T15:33:47.383Z,8.23
2022-12-07T15:36:25.177Z,9.93
2022-12-07T15:39:13.728Z,9.97
2022-12-07T15:41:47.831Z,9.50
2022-12-07T15:44:31.363Z,10.83
2022-12-07T15:47:01.569Z,8.33
2022-12-07T15:49:32.232Z,8.67
2022-12-07T15:52:02.533Z,8.03
2022-12-07T15:54:34.135Z,7.20
2022-12-07T15:57:07.358Z,7.90
2022-12-07T15:59:37.621Z,9.07
2022-12-07T16:02:08.385Z,9.07
2022-12-07T16:04:38.543Z,6.83
2022-12-07T16:07:09.346Z,9.03
2022-12-07T16:09:39.315Z,5.50
2022-12-07T16:12:13.254Z,7.50
2022-12-07T16:14:43.915Z,5.30
2022-12-07T16:17:14.807Z,8.10
2022-12-07T16:19:45.323Z,13.83
2022-12-07T16:22:15.689Z,12.10
2022-12-07T16:24:46.028Z,75.87
2022-12-07T16:27:19.266Z,48.23
2022-12-07T16:29:49.194Z,8.80
2022-12-07T16:32:19.607Z,6.53
2022-12-07T16:34:49.616Z,8.00
2022-12-07T16:37:20.597Z,7.90
2022-12-07T16:39:50.620Z,6.10
2022-12-07T16:42:23.850Z,14.47
2022-12-07T16:44:54.186Z,31.20
2022-12-07T16:47:24.633Z,43.00
2022-12-07T16:49:54.822Z,8.30
2022-12-07T16:52:25.948Z,9.37
2022-12-07T16:54:56.318Z,6.27
2022-12-07T16:57:29.926Z,9.80
2022-12-07T17:00:00.278Z,5.83
2022-12-07T17:02:31.153Z,7.10
2022-12-07T17:05:01.711Z,6.60
2022-12-07T17:07:32.430Z,14.33
2022-12-07T17:10:02.596Z,10.87
2022-12-07T17:12:35.875Z,47.37
2022-12-07T17:15:21.782Z,12.20
2022-12-07T17:17:57.296Z,24.30
2022-12-07T17:20:29.532Z,8.60
2022-12-07T17:23:00.545Z,8.53
2022-12-07T17:25:30.556Z,7.80
2022-12-07T17:28:03.395Z,7.40
2022-12-07T17:30:33.346Z,10.60
2022-12-07T17:33:03.286Z,8.60
2022-12-07T17:35:33.165Z,10.47
2022-12-07T17:38:03.045Z,9.20
2022-12-07T17:40:32.914Z,10.50
2022-12-07T17:43:05.692Z,9.27
2022-12-07T17:45:35.748Z,10.20
2022-12-07T17:48:06.697Z,8.60
2022-12-07T17:50:49.671Z,7.83
2022-12-07T17:53:20.615Z,10.87
2022-12-07T17:56:26.860Z,8.30
2022-12-07T17:58:43.381Z,8.90
2022-12-07T18:01:13.519Z,10.63
2022-12-07T18:03:43.894Z,13.33
2022-12-07T18:06:14.115Z,8.17
2022-12-07T18:08:44.799Z,9.80
2022-12-07T18:11:14.748Z,9.70
2022-12-07T18:13:47.369Z,44.63
2022-12-07T18:16:20.750Z,27.63
2022-12-07T18:18:53.990Z,15.33
2022-12-07T18:21:26.738Z,18.03
2022-12-07T18:24:02.449Z,103.03
2022-12-07T18:26:35.858Z,16.83
2022-12-07T18:29:09.990Z,11.30
2022-12-07T18:31:40.208Z,78.77
2022-12-07T18:34:14.633Z,17.50
2022-12-07T18:36:46.717Z,43.83
2022-12-07T18:39:19.263Z,67.03
2022-12-07T18:41:50.026Z,25.60
2022-12-07T18:44:22.954Z,48.17
2022-12-07T18:46:54.203Z,163.07
2022-12-07T18:49:24.464Z,280.47
2022-12-07T18:51:54.801Z,174.63
2022-12-07T18:54:25.372Z,118.47
2022-12-07T18:56:57.465Z,33.57
2022-12-07T18:59:42.645Z,8.00
2022-12-07T19:02:14.177Z,9.77
2022-12-07T19:04:45.009Z,7.43
2022-12-07T19:07:15.462Z,12.73
2022-12-07T19:09:45.639Z,18.73
2022-12-07T19:12:16.743Z,28.63
2022-12-07T19:14:49.527Z,48.63
2022-12-07T19:17:20.711Z,11.40
2022-12-07T19:19:51.049Z,9.33
2022-12-07T19:22:23.123Z,10.90
2022-12-07T19:24:54.886Z,13.43
2022-12-07T19:27:27.387Z,20.90
2022-12-07T19:30:00.254Z,294.67
2022-12-07T19:32:32.007Z,472.17
2022-12-07T19:35:02.736Z,190.27
2022-12-07T19:37:33.916Z,582.03
2022-12-07T19:40:03.978Z,558.37
2022-12-07T19:42:35.829Z,630.47
2022-12-07T19:45:09.549Z,424.37
2022-12-07T19:47:40.329Z,570.07
2022-12-07T19:50:12.160Z,416.57
2022-12-07T19:52:42.122Z,341.47
2022-12-07T19:55:12.544Z,180.23
2022-12-07T19:57:42.825Z,132.87
2022-12-07T20:00:16.791Z,306.17
2022-12-07T20:02:47.243Z,306.00
2022-12-07T20:05:17.239Z,71.87
2022-12-07T20:07:47.605Z,237.43
2022-12-07T20:10:21.649Z,384.73
2022-12-07T20:13:07.254Z,487.10
2022-12-07T20:15:40.350Z,298.73
2022-12-07T20:18:10.919Z,338.27
2022-12-07T20:20:40.850Z,358.50
2022-12-07T20:23:12.047Z,528.87
2022-12-07T20:25:41.966Z,388.67
2022-12-07T20:28:12.652Z,350.67
2022-12-07T20:30:49.570Z,353.40
2022-12-07T20:33:20.308Z,647.60
2022-12-07T20:35:50.851Z,743.47
2022-12-07T20:38:20.867Z,591.30
2022-12-07T20:40:52.605Z,575.17
2022-12-07T20:43:20.479Z,484.83
2022-12-07T20:45:53.246Z,604.73
2022-12-07T20:48:24.250Z,519.57
2022-12-07T20:50:54.474Z,428.07
2022-12-07T20:53:25.082Z,495.20
2022-12-07T20:55:55.237Z,400.53
2022-12-07T20:58:28.609Z,553.73
2022-12-07T21:01:06.568Z,428.60
2022-12-07T21:03:36.538Z,553.87
2022-12-07T21:06:06.911Z,266.60
2022-12-07T21:08:37.054Z,474.93
2022-12-07T21:11:11.210Z,260.07
2022-12-07T21:13:42.018Z,392.97
2022-12-07T21:16:16.971Z,655.33
2022-12-07T21:18:48.244Z,391.33
2022-12-07T21:21:19.437Z,509.23
2022-12-07T21:23:51.163Z,354.43
2022-12-07T21:26:22.867Z,296.03
2022-12-07T21:28:54.606Z,281.33
2022-12-07T21:31:27.819Z,304.23
2022-12-07T21:33:58.291Z,228.33
2022-12-07T21:36:29.507Z,80.83
2022-12-07T21:39:01.072Z,217.27
2022-12-07T21:41:32.714Z,566.00
2022-12-07T21:44:03.569Z,312.70
2022-12-07T21:46:36.292Z,485.30
2022-12-07T21:49:10.484Z,424.23
2022-12-07T21:51:41.390Z,284.40
2022-12-07T21:54:15.011Z,152.83
2022-12-07T21:56:45.827Z,174.57
2022-12-07T21:59:18.679Z,300.37
2022-12-07T22:01:51.432Z,324.43
2022-12-07T22:04:24.454Z,377.00
2022-12-07T22:06:57.055Z,61.20
2022-12-07T22:09:30.545Z,85.17
2022-12-07T22:12:00.680Z,127.17
2022-12-07T22:14:43.820Z,130.23
2022-12-07T22:17:16.347Z,225.90
2022-12-07T22:19:46.867Z,344.27
2022-12-07T22:22:17.964Z,438.97
2022-12-07T22:24:48.462Z,546.57
2022-12-07T22:27:19.087Z,557.53
2022-12-07T22:29:50.416Z,588.80
2022-12-07T22:32:47.863Z,544.50
2022-12-07T22:35:13.233Z,169.03
2022-12-07T22:37:43.150Z,185.23
2022-12-07T22:40:15.303Z,152.97
2022-12-07T22:42:45.196Z,375.47
2022-12-07T22:45:15.708Z,409.80
2022-12-07T22:47:48.208Z,388.83
2022-12-07T22:50:18.816Z,750.73
2022-12-07T22:52:48.791Z,646.83
2022-12-07T22:55:19.669Z,645.43
2022-12-07T22:57:49.598Z,394.27
2022-12-07T23:00:20.480Z,635.73
2022-12-07T23:02:53.036Z,698.60
2022-12-07T23:05:23.541Z,379.50
2022-12-07T23:07:53.668Z,668.77
2022-12-07T23:10:24.979Z,805.33
2022-12-07T23:13:07.482Z,653.40
2022-12-07T23:15:39.049Z,544.57
2022-12-07T23:18:11.632Z,590.73
2022-12-07T23:20:42.402Z,706.17
2022-12-07T23:23:12.338Z,283.30
2022-12-07T23:25:43.077Z,271.53
2022-12-07T23:28:12.992Z,632.30
2022-12-07T23:30:43.580Z,532.93
2022-12-07T23:33:16.137Z,416.80
2022-12-07T23:35:46.376Z,703.23
2022-12-07T23:38:16.269Z,1109.03
2022-12-07T23:40:46.554Z,566.60
2022-12-07T23:43:16.878Z,1175.27
2022-12-07T23:45:49.321Z,928.90
2022-12-07T23:48:21.844Z,305.03
2022-12-07T23:50:52.159Z,778.07
2022-12-07T23:53:22.126Z,786.70
2022-12-07T23:55:52.042Z,638.50
2022-12-07T23:58:21.978Z,741.17
